Weather at Bade Rotor and Wing Svc. Heliport

Public forecast

Using degrees Fahrenheit for public forecast. Weather courtesy of forecast.io.

Closest aviation weather report (METAR) to Bade Rotor and Wing Svc. Heliport

Closest report is Olympia Regional Airport, 5.1 nm (9.5 km) ENE.

2024/07/16 19:54 (retrieved 57 minutes ago)

KOLM 161954Z 03009G16KT 10SM CLR 29/12 A2999 RMK AO2 SLP154 T02940122

Closest aviation forecast (TAF) to Bade Rotor and Wing Svc. Heliport

Closest forecast is Olympia Regional Airport, 5.1 nm (9.5 km) ENE.

2024/07/16 18:34 (retrieved 2 hours ago)

TAF KOLM 161732Z 1618/1718 03008KT P6SM SKC FM170900 20004KT P6SM BKN150 TEMPO 1712/1715 OVC010